sensor_id;sensor_type;location;lat;lon;timestamp;P1;durP1;ratioP1;P2;durP2;ratioP2
64619;SDS011;51029;51.058;13.826;2024-03-02T00:00:15;43.63;;;35.50;;
64619;SDS011;51029;51.058;13.826;2024-03-02T00:05:07;41.63;;;35.63;;
64619;SDS011;51029;51.058;13.826;2024-03-02T00:07:33;45.87;;;36.47;;
64619;SDS011;51029;51.058;13.826;2024-03-02T00:09:59;43.93;;;35.97;;
64619;SDS011;51029;51.058;13.826;2024-03-02T00:12:25;45.20;;;35.47;;
64619;SDS011;51029;51.058;13.826;2024-03-02T00:14:51;42.40;;;35.43;;
64619;SDS011;51029;51.058;13.826;2024-03-02T00:17:17;43.70;;;35.00;;
64619;SDS011;51029;51.058;13.826;2024-03-02T00:19:46;42.77;;;35.17;;
64619;SDS011;51029;51.058;13.826;2024-03-02T00:22:12;43.73;;;34.37;;
64619;SDS011;51029;51.058;13.826;2024-03-02T00:24:38;45.37;;;35.73;;
64619;SDS011;51029;51.058;13.826;2024-03-02T00:27:05;41.60;;;33.73;;
64619;SDS011;51029;51.058;13.826;2024-03-02T00:29:31;44.03;;;35.57;;
64619;SDS011;51029;51.058;13.826;2024-03-02T00:31:57;43.17;;;34.00;;
64619;SDS011;51029;51.058;13.826;2024-03-02T00:34:23;42.60;;;33.97;;
64619;SDS011;51029;51.058;13.826;2024-03-02T00:36:50;46.50;;;36.00;;
64619;SDS011;51029;51.058;13.826;2024-03-02T00:39:16;45.10;;;34.43;;
64619;SDS011;51029;51.058;13.826;2024-03-02T00:41:42;43.83;;;34.57;;
64619;SDS011;51029;51.058;13.826;2024-03-02T00:44:15;45.93;;;34.27;;
64619;SDS011;51029;51.058;13.826;2024-03-02T00:46:42;44.53;;;34.83;;
64619;SDS011;51029;51.058;13.826;2024-03-02T00:51:36;40.03;;;33.10;;
64619;SDS011;51029;51.058;13.826;2024-03-02T00:54:07;43.37;;;33.67;;
64619;SDS011;51029;51.058;13.826;2024-03-02T00:56:34;45.47;;;35.03;;
64619;SDS011;51029;51.058;13.826;2024-03-02T00:59:00;46.47;;;35.23;;
64619;SDS011;51029;51.058;13.826;2024-03-02T01:01:26;44.20;;;34.53;;
64619;SDS011;51029;51.058;13.826;2024-03-02T01:03:52;44.40;;;35.17;;
64619;SDS011;51029;51.058;13.826;2024-03-02T01:06:18;42.13;;;33.60;;
64619;SDS011;51029;51.058;13.826;2024-03-02T01:08:45;41.67;;;33.53;;
64619;SDS011;51029;51.058;13.826;2024-03-02T01:11:15;50.00;;;34.37;;
64619;SDS011;51029;51.058;13.826;2024-03-02T01:13:41;39.07;;;33.27;;
64619;SDS011;51029;51.058;13.826;2024-03-02T01:16:07;45.67;;;34.70;;
64619;SDS011;51029;51.058;13.826;2024-03-02T01:18:33;42.60;;;33.47;;
64619;SDS011;51029;51.058;13.826;2024-03-02T01:20:59;42.27;;;34.23;;
64619;SDS011;51029;51.058;13.826;2024-03-02T01:23:25;42.47;;;34.10;;
64619;SDS011;51029;51.058;13.826;2024-03-02T01:25:51;45.37;;;35.00;;
64619;SDS011;51029;51.058;13.826;2024-03-02T01:28:17;45.70;;;35.20;;
64619;SDS011;51029;51.058;13.826;2024-03-02T01:30:44;47.90;;;35.37;;
64619;SDS011;51029;51.058;13.826;2024-03-02T01:33:10;44.50;;;35.57;;
64619;SDS011;51029;51.058;13.826;2024-03-02T01:35:36;47.30;;;36.27;;
64619;SDS011;51029;51.058;13.826;2024-03-02T01:38:03;46.10;;;36.70;;
64619;SDS011;51029;51.058;13.826;2024-03-02T01:40:30;50.87;;;38.63;;
64619;SDS011;51029;51.058;13.826;2024-03-02T01:42:56;48.40;;;37.87;;
64619;SDS011;51029;51.058;13.826;2024-03-02T01:45:25;54.77;;;40.03;;
64619;SDS011;51029;51.058;13.826;2024-03-02T01:47:51;49.90;;;37.60;;
64619;SDS011;51029;51.058;13.826;2024-03-02T01:50:24;51.30;;;38.90;;
64619;SDS011;51029;51.058;13.826;2024-03-02T01:52:50;56.67;;;40.97;;
64619;SDS011;51029;51.058;13.826;2024-03-02T01:55:16;65.93;;;45.40;;
64619;SDS011;51029;51.058;13.826;2024-03-02T01:57:42;58.03;;;43.27;;
64619;SDS011;51029;51.058;13.826;2024-03-02T02:00:10;60.43;;;43.53;;
64619;SDS011;51029;51.058;13.826;2024-03-02T02:02:36;51.37;;;37.73;;
64619;SDS011;51029;51.058;13.826;2024-03-02T02:05:02;59.07;;;43.17;;
64619;SDS011;51029;51.058;13.826;2024-03-02T02:07:28;60.97;;;44.00;;
64619;SDS011;51029;51.058;13.826;2024-03-02T02:09:54;63.63;;;44.10;;
64619;SDS011;51029;51.058;13.826;2024-03-02T02:12:19;58.70;;;42.03;;
64619;SDS011;51029;51.058;13.826;2024-03-02T02:14:49;62.00;;;42.53;;
64619;SDS011;51029;51.058;13.826;2024-03-02T02:17:17;59.27;;;42.77;;
64619;SDS011;51029;51.058;13.826;2024-03-02T02:19:43;63.20;;;42.53;;
64619;SDS011;51029;51.058;13.826;2024-03-02T02:22:10;60.67;;;41.90;;
64619;SDS011;51029;51.058;13.826;2024-03-02T02:24:39;60.27;;;41.57;;
64619;SDS011;51029;51.058;13.826;2024-03-02T02:27:06;60.33;;;41.47;;
64619;SDS011;51029;51.058;13.826;2024-03-02T02:29:32;63.40;;;42.10;;
64619;SDS011;51029;51.058;13.826;2024-03-02T02:31:58;63.80;;;43.37;;
64619;SDS011;51029;51.058;13.826;2024-03-02T02:34:24;67.37;;;44.57;;
64619;SDS011;51029;51.058;13.826;2024-03-02T02:36:49;64.50;;;44.50;;
64619;SDS011;51029;51.058;13.826;2024-03-02T02:39:16;64.93;;;44.97;;
64619;SDS011;51029;51.058;13.826;2024-03-02T02:41:42;59.63;;;42.37;;
64619;SDS011;51029;51.058;13.826;2024-03-02T02:44:08;62.50;;;41.77;;
64619;SDS011;51029;51.058;13.826;2024-03-02T02:46:36;68.13;;;42.97;;
64619;SDS011;51029;51.058;13.826;2024-03-02T02:49:03;63.50;;;42.17;;
64619;SDS011;51029;51.058;13.826;2024-03-02T02:51:29;64.47;;;44.03;;
64619;SDS011;51029;51.058;13.826;2024-03-02T02:53:55;71.03;;;46.43;;
64619;SDS011;51029;51.058;13.826;2024-03-02T02:56:21;71.70;;;46.83;;
64619;SDS011;51029;51.058;13.826;2024-03-02T02:58:47;63.70;;;43.40;;
64619;SDS011;51029;51.058;13.826;2024-03-02T03:01:13;67.43;;;44.80;;
64619;SDS011;51029;51.058;13.826;2024-03-02T03:03:39;74.73;;;45.90;;
64619;SDS011;51029;51.058;13.826;2024-03-02T03:06:05;65.63;;;43.97;;
64619;SDS011;51029;51.058;13.826;2024-03-02T03:08:31;75.20;;;45.97;;
64619;SDS011;51029;51.058;13.826;2024-03-02T03:10:57;71.10;;;44.53;;
64619;SDS011;51029;51.058;13.826;2024-03-02T03:13:23;71.50;;;44.67;;
64619;SDS011;51029;51.058;13.826;2024-03-02T03:15:49;73.97;;;44.47;;
64619;SDS011;51029;51.058;13.826;2024-03-02T03:18:15;73.80;;;44.73;;
64619;SDS011;51029;51.058;13.826;2024-03-02T03:20:41;66.80;;;42.70;;
64619;SDS011;51029;51.058;13.826;2024-03-02T03:23:07;65.63;;;42.53;;
64619;SDS011;51029;51.058;13.826;2024-03-02T03:25:33;76.67;;;46.07;;
64619;SDS011;51029;51.058;13.826;2024-03-02T03:27:59;74.30;;;46.47;;
64619;SDS011;51029;51.058;13.826;2024-03-02T03:30:26;73.37;;;44.73;;
64619;SDS011;51029;51.058;13.826;2024-03-02T03:32:52;84.70;;;47.73;;
64619;SDS011;51029;51.058;13.826;2024-03-02T03:35:18;66.30;;;42.97;;
64619;SDS011;51029;51.058;13.826;2024-03-02T03:37:44;73.53;;;44.07;;
64619;SDS011;51029;51.058;13.826;2024-03-02T03:40:10;73.40;;;44.40;;
64619;SDS011;51029;51.058;13.826;2024-03-02T03:42:36;73.23;;;44.33;;
64619;SDS011;51029;51.058;13.826;2024-03-02T03:45:03;68.23;;;43.10;;
64619;SDS011;51029;51.058;13.826;2024-03-02T03:47:30;69.80;;;42.57;;
64619;SDS011;51029;51.058;13.826;2024-03-02T03:49:56;73.40;;;42.83;;
64619;SDS011;51029;51.058;13.826;2024-03-02T03:52:22;69.00;;;42.83;;
64619;SDS011;51029;51.058;13.826;2024-03-02T03:54:48;67.10;;;41.53;;
64619;SDS011;51029;51.058;13.826;2024-03-02T03:57:14;72.53;;;43.07;;
64619;SDS011;51029;51.058;13.826;2024-03-02T03:59:41;70.60;;;42.63;;
64619;SDS011;51029;51.058;13.826;2024-03-02T04:02:07;71.07;;;42.03;;
64619;SDS011;51029;51.058;13.826;2024-03-02T04:04:34;70.90;;;43.10;;
64619;SDS011;51029;51.058;13.826;2024-03-02T04:07:00;75.33;;;43.10;;
64619;SDS011;51029;51.058;13.826;2024-03-02T04:09:25;75.30;;;46.13;;
64619;SDS011;51029;51.058;13.826;2024-03-02T04:11:52;71.87;;;43.87;;
64619;SDS011;51029;51.058;13.826;2024-03-02T04:14:18;74.27;;;44.43;;
64619;SDS011;51029;51.058;13.826;2024-03-02T04:16:44;72.97;;;43.97;;
64619;SDS011;51029;51.058;13.826;2024-03-02T04:19:09;78.67;;;45.67;;
64619;SDS011;51029;51.058;13.826;2024-03-02T04:21:35;76.43;;;45.30;;
64619;SDS011;51029;51.058;13.826;2024-03-02T04:24:02;76.47;;;43.03;;
64619;SDS011;51029;51.058;13.826;2024-03-02T04:26:28;75.47;;;45.00;;
64619;SDS011;51029;51.058;13.826;2024-03-02T04:28:54;76.50;;;44.03;;
64619;SDS011;51029;51.058;13.826;2024-03-02T04:31:20;77.57;;;46.17;;
64619;SDS011;51029;51.058;13.826;2024-03-02T04:33:46;73.67;;;43.33;;
64619;SDS011;51029;51.058;13.826;2024-03-02T04:36:12;72.93;;;43.10;;
64619;SDS011;51029;51.058;13.826;2024-03-02T04:38:38;72.50;;;43.20;;
64619;SDS011;51029;51.058;13.826;2024-03-02T04:41:04;79.23;;;43.20;;
64619;SDS011;51029;51.058;13.826;2024-03-02T04:43:34;76.80;;;45.63;;
64619;SDS011;51029;51.058;13.826;2024-03-02T04:46:00;73.03;;;44.37;;
64619;SDS011;51029;51.058;13.826;2024-03-02T04:48:26;73.67;;;43.63;;
64619;SDS011;51029;51.058;13.826;2024-03-02T04:50:52;80.20;;;46.20;;
64619;SDS011;51029;51.058;13.826;2024-03-02T04:53:18;72.77;;;43.93;;
64619;SDS011;51029;51.058;13.826;2024-03-02T04:55:44;74.27;;;43.73;;
64619;SDS011;51029;51.058;13.826;2024-03-02T04:58:19;78.57;;;44.83;;
64619;SDS011;51029;51.058;13.826;2024-03-02T05:00:45;76.13;;;43.10;;
64619;SDS011;51029;51.058;13.826;2024-03-02T05:03:11;72.07;;;42.53;;
64619;SDS011;51029;51.058;13.826;2024-03-02T05:05:38;79.10;;;42.20;;
64619;SDS011;51029;51.058;13.826;2024-03-02T05:08:04;71.33;;;42.50;;
64619;SDS011;51029;51.058;13.826;2024-03-02T05:10:30;74.73;;;44.07;;
64619;SDS011;51029;51.058;13.826;2024-03-02T05:12:56;75.23;;;44.53;;
64619;SDS011;51029;51.058;13.826;2024-03-02T05:15:23;73.17;;;42.50;;
64619;SDS011;51029;51.058;13.826;2024-03-02T05:17:49;70.93;;;43.23;;
64619;SDS011;51029;51.058;13.826;2024-03-02T05:20:16;75.60;;;43.13;;
64619;SDS011;51029;51.058;13.826;2024-03-02T05:22:42;68.90;;;41.20;;
64619;SDS011;51029;51.058;13.826;2024-03-02T05:25:08;67.83;;;40.90;;
64619;SDS011;51029;51.058;13.826;2024-03-02T05:27:37;64.73;;;40.20;;
64619;SDS011;51029;51.058;13.826;2024-03-02T05:30:03;63.13;;;39.47;;
64619;SDS011;51029;51.058;13.826;2024-03-02T05:32:31;67.17;;;40.10;;
64619;SDS011;51029;51.058;13.826;2024-03-02T05:34:57;59.70;;;38.83;;
64619;SDS011;51029;51.058;13.826;2024-03-02T05:37:23;58.70;;;36.70;;
64619;SDS011;51029;51.058;13.826;2024-03-02T05:39:49;57.13;;;36.70;;
64619;SDS011;51029;51.058;13.826;2024-03-02T05:42:14;57.83;;;38.63;;
64619;SDS011;51029;51.058;13.826;2024-03-02T05:44:41;51.27;;;36.27;;
64619;SDS011;51029;51.058;13.826;2024-03-02T05:47:07;57.63;;;36.20;;
64619;SDS011;51029;51.058;13.826;2024-03-02T05:49:34;54.77;;;36.00;;
64619;SDS011;51029;51.058;13.826;2024-03-02T05:51:59;55.23;;;37.13;;
64619;SDS011;51029;51.058;13.826;2024-03-02T05:54:25;53.83;;;35.60;;
64619;SDS011;51029;51.058;13.826;2024-03-02T05:56:51;59.00;;;38.53;;
64619;SDS011;51029;51.058;13.826;2024-03-02T05:59:17;54.43;;;37.07;;
64619;SDS011;51029;51.058;13.826;2024-03-02T06:01:43;51.30;;;34.90;;
64619;SDS011;51029;51.058;13.826;2024-03-02T06:04:10;58.43;;;37.83;;
64619;SDS011;51029;51.058;13.826;2024-03-02T06:06:36;53.17;;;35.73;;
64619;SDS011;51029;51.058;13.826;2024-03-02T06:09:02;52.53;;;35.10;;
64619;SDS011;51029;51.058;13.826;2024-03-02T06:11:39;58.03;;;36.70;;
64619;SDS011;51029;51.058;13.826;2024-03-02T06:14:06;54.13;;;37.53;;
64619;SDS011;51029;51.058;13.826;2024-03-02T06:16:32;55.13;;;36.67;;
64619;SDS011;51029;51.058;13.826;2024-03-02T06:18:58;58.00;;;38.07;;
64619;SDS011;51029;51.058;13.826;2024-03-02T06:21:24;54.13;;;35.93;;
64619;SDS011;51029;51.058;13.826;2024-03-02T06:23:50;53.70;;;35.47;;
64619;SDS011;51029;51.058;13.826;2024-03-02T06:26:16;59.13;;;36.90;;
64619;SDS011;51029;51.058;13.826;2024-03-02T06:28:43;59.57;;;37.37;;
64619;SDS011;51029;51.058;13.826;2024-03-02T06:31:09;59.87;;;37.73;;
64619;SDS011;51029;51.058;13.826;2024-03-02T06:33:35;57.93;;;36.67;;
64619;SDS011;51029;51.058;13.826;2024-03-02T06:36:01;58.93;;;37.43;;
64619;SDS011;51029;51.058;13.826;2024-03-02T06:38:27;58.47;;;36.97;;
64619;SDS011;51029;51.058;13.826;2024-03-02T06:40:53;57.53;;;37.30;;
64619;SDS011;51029;51.058;13.826;2024-03-02T06:43:20;57.03;;;36.67;;
64619;SDS011;51029;51.058;13.826;2024-03-02T06:45:52;57.87;;;35.97;;
64619;SDS011;51029;51.058;13.826;2024-03-02T06:48:18;63.27;;;37.23;;
64619;SDS011;51029;51.058;13.826;2024-03-02T06:50:48;59.60;;;37.87;;
64619;SDS011;51029;51.058;13.826;2024-03-02T06:53:14;60.37;;;36.07;;
64619;SDS011;51029;51.058;13.826;2024-03-02T06:55:44;57.80;;;36.83;;
64619;SDS011;51029;51.058;13.826;2024-03-02T06:58:13;58.07;;;36.70;;
64619;SDS011;51029;51.058;13.826;2024-03-02T07:00:42;60.50;;;37.23;;
64619;SDS011;51029;51.058;13.826;2024-03-02T07:03:09;61.53;;;35.13;;
64619;SDS011;51029;51.058;13.826;2024-03-02T07:05:35;55.40;;;35.73;;
64619;SDS011;51029;51.058;13.826;2024-03-02T07:08:01;56.10;;;34.67;;
64619;SDS011;51029;51.058;13.826;2024-03-02T07:10:28;59.57;;;34.93;;
64619;SDS011;51029;51.058;13.826;2024-03-02T07:12:54;47.83;;;32.73;;
64619;SDS011;51029;51.058;13.826;2024-03-02T07:15:20;54.97;;;34.17;;
64619;SDS011;51029;51.058;13.826;2024-03-02T07:18:02;52.07;;;33.10;;
64619;SDS011;51029;51.058;13.826;2024-03-02T07:20:28;52.53;;;32.63;;
64619;SDS011;51029;51.058;13.826;2024-03-02T07:22:53;57.20;;;36.00;;
64619;SDS011;51029;51.058;13.826;2024-03-02T07:25:19;52.03;;;34.43;;
64619;SDS011;51029;51.058;13.826;2024-03-02T07:27:45;50.80;;;33.27;;
64619;SDS011;51029;51.058;13.826;2024-03-02T07:30:14;54.27;;;34.63;;
64619;SDS011;51029;51.058;13.826;2024-03-02T07:32:43;55.23;;;33.77;;
64619;SDS011;51029;51.058;13.826;2024-03-02T07:35:11;58.63;;;35.30;;
64619;SDS011;51029;51.058;13.826;2024-03-02T07:37:37;57.30;;;34.77;;
64619;SDS011;51029;51.058;13.826;2024-03-02T07:40:03;54.37;;;33.83;;
64619;SDS011;51029;51.058;13.826;2024-03-02T07:42:29;52.43;;;33.83;;
64619;SDS011;51029;51.058;13.826;2024-03-02T07:44:55;61.57;;;35.57;;
64619;SDS011;51029;51.058;13.826;2024-03-02T07:47:21;56.40;;;34.10;;
64619;SDS011;51029;51.058;13.826;2024-03-02T07:49:47;56.17;;;35.73;;
64619;SDS011;51029;51.058;13.826;2024-03-02T07:52:13;54.87;;;33.57;;
64619;SDS011;51029;51.058;13.826;2024-03-02T07:54:39;48.77;;;31.20;;
64619;SDS011;51029;51.058;13.826;2024-03-02T07:57:05;52.60;;;32.90;;
64619;SDS011;51029;51.058;13.826;2024-03-02T07:59:31;56.77;;;34.83;;
64619;SDS011;51029;51.058;13.826;2024-03-02T08:01:57;55.27;;;35.67;;
64619;SDS011;51029;51.058;13.826;2024-03-02T08:04:23;49.10;;;32.17;;
64619;SDS011;51029;51.058;13.826;2024-03-02T08:06:49;51.53;;;33.33;;
64619;SDS011;51029;51.058;13.826;2024-03-02T08:09:15;53.70;;;34.47;;
64619;SDS011;51029;51.058;13.826;2024-03-02T08:11:41;53.20;;;33.10;;
64619;SDS011;51029;51.058;13.826;2024-03-02T08:14:07;54.33;;;33.43;;
64619;SDS011;51029;51.058;13.826;2024-03-02T08:16:33;51.03;;;31.93;;
64619;SDS011;51029;51.058;13.826;2024-03-02T08:18:59;49.23;;;29.43;;
64619;SDS011;51029;51.058;13.826;2024-03-02T08:21:25;45.43;;;28.00;;
64619;SDS011;51029;51.058;13.826;2024-03-02T08:23:51;42.97;;;27.20;;
64619;SDS011;51029;51.058;13.826;2024-03-02T08:26:17;42.30;;;25.93;;
64619;SDS011;51029;51.058;13.826;2024-03-02T08:28:43;35.87;;;23.77;;
64619;SDS011;51029;51.058;13.826;2024-03-02T08:31:09;37.70;;;24.63;;
64619;SDS011;51029;51.058;13.826;2024-03-02T08:33:35;39.23;;;24.17;;
64619;SDS011;51029;51.058;13.826;2024-03-02T08:36:01;34.03;;;22.57;;
64619;SDS011;51029;51.058;13.826;2024-03-02T08:38:28;33.97;;;22.50;;
64619;SDS011;51029;51.058;13.826;2024-03-02T08:40:54;33.33;;;21.30;;
64619;SDS011;51029;51.058;13.826;2024-03-02T08:43:20;31.10;;;21.20;;
64619;SDS011;51029;51.058;13.826;2024-03-02T08:45:47;28.10;;;18.83;;
64619;SDS011;51029;51.058;13.826;2024-03-02T08:48:13;28.60;;;18.77;;
64619;SDS011;51029;51.058;13.826;2024-03-02T08:50:39;29.07;;;19.70;;
64619;SDS011;51029;51.058;13.826;2024-03-02T08:53:05;27.30;;;18.77;;
64619;SDS011;51029;51.058;13.826;2024-03-02T08:55:31;25.53;;;18.10;;
64619;SDS011;51029;51.058;13.826;2024-03-02T08:57:57;26.87;;;17.87;;
64619;SDS011;51029;51.058;13.826;2024-03-02T09:00:23;26.50;;;18.83;;
64619;SDS011;51029;51.058;13.826;2024-03-02T09:02:49;27.60;;;19.43;;
64619;SDS011;51029;51.058;13.826;2024-03-02T09:05:15;29.20;;;19.63;;
64619;SDS011;51029;51.058;13.826;2024-03-02T09:07:41;29.20;;;20.17;;
64619;SDS011;51029;51.058;13.826;2024-03-02T09:10:07;26.67;;;18.20;;
64619;SDS011;51029;51.058;13.826;2024-03-02T09:12:34;28.87;;;20.27;;
64619;SDS011;51029;51.058;13.826;2024-03-02T09:15:00;29.53;;;20.73;;
64619;SDS011;51029;51.058;13.826;2024-03-02T09:17:27;26.30;;;19.30;;
64619;SDS011;51029;51.058;13.826;2024-03-02T09:19:53;34.63;;;23.13;;
64619;SDS011;51029;51.058;13.826;2024-03-02T09:22:19;30.30;;;21.10;;
64619;SDS011;51029;51.058;13.826;2024-03-02T09:24:45;28.83;;;20.07;;
64619;SDS011;51029;51.058;13.826;2024-03-02T09:27:11;33.10;;;22.00;;
64619;SDS011;51029;51.058;13.826;2024-03-02T09:29:37;41.70;;;31.43;;
64619;SDS011;51029;51.058;13.826;2024-03-02T09:32:03;33.10;;;23.87;;
64619;SDS011;51029;51.058;13.826;2024-03-02T09:34:30;31.50;;;21.97;;
64619;SDS011;51029;51.058;13.826;2024-03-02T09:36:56;37.33;;;21.70;;
64619;SDS011;51029;51.058;13.826;2024-03-02T09:39:22;34.63;;;22.33;;
64619;SDS011;51029;51.058;13.826;2024-03-02T09:41:50;32.70;;;22.60;;
64619;SDS011;51029;51.058;13.826;2024-03-02T09:44:16;37.97;;;23.67;;
64619;SDS011;51029;51.058;13.826;2024-03-02T09:46:42;35.70;;;24.27;;
64619;SDS011;51029;51.058;13.826;2024-03-02T09:49:09;36.27;;;24.30;;
64619;SDS011;51029;51.058;13.826;2024-03-02T09:51:35;40.80;;;25.93;;
64619;SDS011;51029;51.058;13.826;2024-03-02T09:54:02;40.20;;;25.27;;
64619;SDS011;51029;51.058;13.826;2024-03-02T09:56:28;41.00;;;25.90;;
64619;SDS011;51029;51.058;13.826;2024-03-02T09:58:54;37.10;;;25.47;;
64619;SDS011;51029;51.058;13.826;2024-03-02T10:01:20;42.47;;;25.73;;
64619;SDS011;51029;51.058;13.826;2024-03-02T10:03:46;43.27;;;28.13;;
64619;SDS011;51029;51.058;13.826;2024-03-02T10:06:33;45.13;;;27.00;;
64619;SDS011;51029;51.058;13.826;2024-03-02T10:08:59;44.47;;;28.03;;
64619;SDS011;51029;51.058;13.826;2024-03-02T10:11:25;39.67;;;25.13;;
64619;SDS011;51029;51.058;13.826;2024-03-02T10:14:11;42.67;;;26.60;;
64619;SDS011;51029;51.058;13.826;2024-03-02T10:16:38;45.47;;;25.77;;
64619;SDS011;51029;51.058;13.826;2024-03-02T10:19:20;46.37;;;27.33;;
64619;SDS011;51029;51.058;13.826;2024-03-02T10:21:47;44.67;;;27.70;;
64619;SDS011;51029;51.058;13.826;2024-03-02T10:24:14;47.13;;;27.63;;
64619;SDS011;51029;51.058;13.826;2024-03-02T10:26:40;39.87;;;25.17;;
64619;SDS011;51029;51.058;13.826;2024-03-02T10:29:07;43.40;;;25.40;;
64619;SDS011;51029;51.058;13.826;2024-03-02T10:31:33;39.93;;;25.47;;
64619;SDS011;51029;51.058;13.826;2024-03-02T10:34:00;41.20;;;25.37;;
64619;SDS011;51029;51.058;13.826;2024-03-02T10:36:27;41.60;;;25.50;;
64619;SDS011;51029;51.058;13.826;2024-03-02T10:38:53;37.80;;;24.67;;
64619;SDS011;51029;51.058;13.826;2024-03-02T10:41:26;34.40;;;22.47;;
64619;SDS011;51029;51.058;13.826;2024-03-02T10:43:52;31.30;;;18.70;;
64619;SDS011;51029;51.058;13.826;2024-03-02T10:46:24;26.87;;;17.20;;
64619;SDS011;51029;51.058;13.826;2024-03-02T10:48:52;23.73;;;16.53;;
64619;SDS011;51029;51.058;13.826;2024-03-02T10:51:18;25.40;;;16.67;;
64619;SDS011;51029;51.058;13.826;2024-03-02T10:53:44;23.93;;;16.27;;
64619;SDS011;51029;51.058;13.826;2024-03-02T10:56:10;28.13;;;18.07;;
64619;SDS011;51029;51.058;13.826;2024-03-02T10:58:40;25.87;;;17.87;;
64619;SDS011;51029;51.058;13.826;2024-03-02T11:01:06;26.50;;;17.53;;
64619;SDS011;51029;51.058;13.826;2024-03-02T11:03:33;28.37;;;18.23;;
64619;SDS011;51029;51.058;13.826;2024-03-02T11:06:00;27.80;;;18.00;;
64619;SDS011;51029;51.058;13.826;2024-03-02T11:08:31;24.10;;;16.37;;
64619;SDS011;51029;51.058;13.826;2024-03-02T11:10:58;20.13;;;14.60;;
64619;SDS011;51029;51.058;13.826;2024-03-02T11:13:27;22.70;;;16.47;;
64619;SDS011;51029;51.058;13.826;2024-03-02T11:15:55;22.60;;;16.50;;
64619;SDS011;51029;51.058;13.826;2024-03-02T11:18:24;26.57;;;17.70;;
64619;SDS011;51029;51.058;13.826;2024-03-02T11:20:51;25.27;;;17.03;;
64619;SDS011;51029;51.058;13.826;2024-03-02T11:23:17;22.80;;;16.43;;
64619;SDS011;51029;51.058;13.826;2024-03-02T11:25:43;26.57;;;17.03;;
64619;SDS011;51029;51.058;13.826;2024-03-02T11:28:09;25.77;;;16.23;;
64619;SDS011;51029;51.058;13.826;2024-03-02T11:33:04;23.17;;;16.17;;
64619;SDS011;51029;51.058;13.826;2024-03-02T11:35:34;26.63;;;15.90;;
64619;SDS011;51029;51.058;13.826;2024-03-02T11:38:01;22.03;;;15.23;;
64619;SDS011;51029;51.058;13.826;2024-03-02T11:40:28;18.00;;;13.20;;
64619;SDS011;51029;51.058;13.826;2024-03-02T11:42:54;15.83;;;12.67;;
64619;SDS011;51029;51.058;13.826;2024-03-02T11:45:27;16.90;;;12.07;;
64619;SDS011;51029;51.058;13.826;2024-03-02T11:47:59;17.60;;;11.87;;
64619;SDS011;51029;51.058;13.826;2024-03-02T11:53:10;20.13;;;13.53;;
64619;SDS011;51029;51.058;13.826;2024-03-02T11:55:37;20.13;;;13.87;;
64619;SDS011;51029;51.058;13.826;2024-03-02T11:58:22;26.57;;;14.80;;
64619;SDS011;51029;51.058;13.826;2024-03-02T12:00:54;20.60;;;14.17;;
64619;SDS011;51029;51.058;13.826;2024-03-02T12:03:22;20.60;;;14.70;;
64619;SDS011;51029;51.058;13.826;2024-03-02T12:05:49;23.27;;;14.60;;
64619;SDS011;51029;51.058;13.826;2024-03-02T12:08:15;22.93;;;14.67;;
64619;SDS011;51029;51.058;13.826;2024-03-02T12:10:42;29.53;;;16.87;;
64619;SDS011;51029;51.058;13.826;2024-03-02T12:13:08;24.87;;;15.23;;
64619;SDS011;51029;51.058;13.826;2024-03-02T12:15:36;25.10;;;16.13;;
64619;SDS011;51029;51.058;13.826;2024-03-02T12:18:03;20.70;;;14.00;;
64619;SDS011;51029;51.058;13.826;2024-03-02T12:20:29;20.97;;;14.87;;
64619;SDS011;51029;51.058;13.826;2024-03-02T12:22:57;23.03;;;15.13;;
64619;SDS011;51029;51.058;13.826;2024-03-02T12:25:24;23.90;;;15.47;;
64619;SDS011;51029;51.058;13.826;2024-03-02T12:27:51;22.40;;;14.37;;
64619;SDS011;51029;51.058;13.826;2024-03-02T12:30:17;24.53;;;16.60;;
64619;SDS011;51029;51.058;13.826;2024-03-02T12:32:43;23.13;;;16.30;;
64619;SDS011;51029;51.058;13.826;2024-03-02T12:35:12;25.03;;;16.87;;
64619;SDS011;51029;51.058;13.826;2024-03-02T12:37:42;25.47;;;16.23;;
64619;SDS011;51029;51.058;13.826;2024-03-02T12:40:09;25.73;;;16.77;;
64619;SDS011;51029;51.058;13.826;2024-03-02T12:42:36;21.20;;;15.33;;
64619;SDS011;51029;51.058;13.826;2024-03-02T12:45:02;21.23;;;14.77;;
64619;SDS011;51029;51.058;13.826;2024-03-02T12:47:28;20.13;;;14.77;;
64619;SDS011;51029;51.058;13.826;2024-03-02T12:49:55;24.40;;;15.00;;
64619;SDS011;51029;51.058;13.826;2024-03-02T12:52:21;24.13;;;15.27;;
64619;SDS011;51029;51.058;13.826;2024-03-02T12:54:47;23.77;;;16.40;;
64619;SDS011;51029;51.058;13.826;2024-03-02T12:57:19;23.63;;;15.37;;
64619;SDS011;51029;51.058;13.826;2024-03-02T12:59:45;19.87;;;14.80;;
64619;SDS011;51029;51.058;13.826;2024-03-02T13:02:18;22.60;;;15.70;;
64619;SDS011;51029;51.058;13.826;2024-03-02T13:04:44;22.00;;;15.20;;
64619;SDS011;51029;51.058;13.826;2024-03-02T13:07:10;18.33;;;14.80;;
64619;SDS011;51029;51.058;13.826;2024-03-02T13:09:38;21.63;;;15.33;;
64619;SDS011;51029;51.058;13.826;2024-03-02T13:12:05;21.50;;;15.03;;
64619;SDS011;51029;51.058;13.826;2024-03-02T13:14:33;24.00;;;15.93;;
64619;SDS011;51029;51.058;13.826;2024-03-02T13:17:00;23.17;;;16.50;;
64619;SDS011;51029;51.058;13.826;2024-03-02T13:19:26;19.93;;;14.97;;
64619;SDS011;51029;51.058;13.826;2024-03-02T13:21:55;18.40;;;14.53;;
64619;SDS011;51029;51.058;13.826;2024-03-02T13:24:22;21.33;;;15.40;;
64619;SDS011;51029;51.058;13.826;2024-03-02T13:26:50;21.20;;;15.40;;
64619;SDS011;51029;51.058;13.826;2024-03-02T13:29:20;19.90;;;15.03;;
64619;SDS011;51029;51.058;13.826;2024-03-02T13:31:46;18.60;;;14.70;;
64619;SDS011;51029;51.058;13.826;2024-03-02T13:34:12;20.67;;;15.00;;
64619;SDS011;51029;51.058;13.826;2024-03-02T13:36:38;21.63;;;14.67;;
64619;SDS011;51029;51.058;13.826;2024-03-02T13:39:04;22.30;;;14.90;;
64619;SDS011;51029;51.058;13.826;2024-03-02T13:41:31;19.33;;;13.60;;
64619;SDS011;51029;51.058;13.826;2024-03-02T13:43:57;20.87;;;13.33;;
64619;SDS011;51029;51.058;13.826;2024-03-02T13:46:26;18.47;;;12.63;;
64619;SDS011;51029;51.058;13.826;2024-03-02T13:48:52;15.30;;;12.00;;
64619;SDS011;51029;51.058;13.826;2024-03-02T13:51:18;16.27;;;11.33;;
64619;SDS011;51029;51.058;13.826;2024-03-02T13:53:44;17.83;;;12.30;;
64619;SDS011;51029;51.058;13.826;2024-03-02T13:56:09;17.40;;;11.97;;
64619;SDS011;51029;51.058;13.826;2024-03-02T13:58:36;18.63;;;12.10;;
64619;SDS011;51029;51.058;13.826;2024-03-02T14:01:02;17.40;;;12.53;;
64619;SDS011;51029;51.058;13.826;2024-03-02T14:03:29;16.73;;;12.43;;
64619;SDS011;51029;51.058;13.826;2024-03-02T14:05:55;18.10;;;12.53;;
64619;SDS011;51029;51.058;13.826;2024-03-02T14:08:21;16.80;;;12.13;;
64619;SDS011;51029;51.058;13.826;2024-03-02T14:10:48;16.17;;;12.47;;
64619;SDS011;51029;51.058;13.826;2024-03-02T14:13:14;17.53;;;13.97;;
64619;SDS011;51029;51.058;13.826;2024-03-02T14:15:40;19.43;;;13.73;;